sensor_id;sensor_type;location;lat;lon;timestamp;pressure;altitude;pressure_sealevel;temperature;humidity
64698;BME280;51124;53.394;-6.294;2023-08-01T00:00:38;99381.30;;;20.73;12.20
64698;BME280;51124;53.394;-6.294;2023-08-01T00:03:03;99381.65;;;20.49;12.18
64698;BME280;51124;53.394;-6.294;2023-08-01T00:05:31;99380.56;;;20.87;11.90
64698;BME280;51124;53.394;-6.294;2023-08-01T00:07:58;99393.24;;;20.59;12.09
64698;BME280;51124;53.394;-6.294;2023-08-01T00:10:25;99391.11;;;20.62;11.87
64698;BME280;51124;53.394;-6.294;2023-08-01T00:12:53;99393.55;;;20.18;12.22
64698;BME280;51124;53.394;-6.294;2023-08-01T00:15:20;99392.89;;;22.12;12.32
64698;BME280;51124;53.394;-6.294;2023-08-01T00:17:47;99396.51;;;22.54;12.57
64698;BME280;51124;53.394;-6.294;2023-08-01T00:20:14;99404.80;;;20.71;12.80
64698;BME280;51124;53.394;-6.294;2023-08-01T00:22:42;99405.51;;;22.49;12.77
64698;BME280;51124;53.394;-6.294;2023-08-01T00:25:09;99405.99;;;23.26;13.24
64698;BME280;51124;53.394;-6.294;2023-08-01T00:27:37;99405.81;;;23.57;13.83
64698;BME280;51124;53.394;-6.294;2023-08-01T00:30:05;99410.19;;;22.94;14.22
64698;BME280;51124;53.394;-6.294;2023-08-01T00:32:34;99408.62;;;23.68;14.13
64698;BME280;51124;53.394;-6.294;2023-08-01T00:35:01;99410.56;;;22.71;14.34
64698;BME280;51124;53.394;-6.294;2023-08-01T00:37:29;99410.98;;;22.59;14.45
64698;BME280;51124;53.394;-6.294;2023-08-01T00:39:56;99412.20;;;22.34;14.57
64698;BME280;51124;53.394;-6.294;2023-08-01T00:42:24;99409.89;;;22.91;14.61
64698;BME280;51124;53.394;-6.294;2023-08-01T00:44:51;99411.24;;;22.44;14.79
64698;BME280;51124;53.394;-6.294;2023-08-01T00:47:19;99410.36;;;22.03;14.73
64698;BME280;51124;53.394;-6.294;2023-08-01T00:49:46;99409.22;;;22.29;14.69
64698;BME280;51124;53.394;-6.294;2023-08-01T00:52:15;99410.86;;;23.16;14.50
64698;BME280;51124;53.394;-6.294;2023-08-01T00:54:42;99413.68;;;22.62;14.56
64698;BME280;51124;53.394;-6.294;2023-08-01T00:57:10;99412.99;;;22.54;14.58
64698;BME280;51124;53.394;-6.294;2023-08-01T00:59:37;99414.55;;;22.45;14.64
64698;BME280;51124;53.394;-6.294;2023-08-01T01:02:05;99417.16;;;23.01;14.65
64698;BME280;51124;53.394;-6.294;2023-08-01T01:04:33;99418.69;;;22.72;14.71
64698;BME280;51124;53.394;-6.294;2023-08-01T01:07:02;99419.62;;;21.25;15.00
64698;BME280;51124;53.394;-6.294;2023-08-01T01:09:31;99421.18;;;22.36;14.81
64698;BME280;51124;53.394;-6.294;2023-08-01T01:11:58;99425.22;;;22.13;14.88
64698;BME280;51124;53.394;-6.294;2023-08-01T01:14:25;99424.63;;;20.66;14.51
64698;BME280;51124;53.394;-6.294;2023-08-01T01:16:52;99428.03;;;19.94;14.22
64698;BME280;51124;53.394;-6.294;2023-08-01T01:19:20;99427.24;;;20.14;13.73
64698;BME280;51124;53.394;-6.294;2023-08-01T01:21:47;99422.54;;;19.86;13.37
64698;BME280;51124;53.394;-6.294;2023-08-01T01:24:15;99421.15;;;20.30;13.28
64698;BME280;51124;53.394;-6.294;2023-08-01T01:26:43;99422.00;;;20.13;13.05
64698;BME280;51124;53.394;-6.294;2023-08-01T01:29:13;99409.11;;;20.09;12.94
64698;BME280;51124;53.394;-6.294;2023-08-01T01:31:40;99410.75;;;20.21;12.59
64698;BME280;51124;53.394;-6.294;2023-08-01T01:34:09;99407.77;;;19.47;12.68
64698;BME280;51124;53.394;-6.294;2023-08-01T01:36:36;99402.32;;;20.12;12.35
64698;BME280;51124;53.394;-6.294;2023-08-01T01:39:04;99399.92;;;20.39;12.20
64698;BME280;51124;53.394;-6.294;2023-08-01T01:41:31;99401.48;;;20.23;12.30
64698;BME280;51124;53.394;-6.294;2023-08-01T01:43:58;99403.15;;;21.27;11.96
64698;BME280;51124;53.394;-6.294;2023-08-01T01:46:26;99404.14;;;20.33;12.19
64698;BME280;51124;53.394;-6.294;2023-08-01T01:48:53;99400.35;;;20.54;11.90
64698;BME280;51124;53.394;-6.294;2023-08-01T01:51:21;99402.31;;;20.71;12.04
64698;BME280;51124;53.394;-6.294;2023-08-01T01:53:48;99402.46;;;20.03;12.13
64698;BME280;51124;53.394;-6.294;2023-08-01T01:56:16;99402.51;;;20.37;11.87
64698;BME280;51124;53.394;-6.294;2023-08-01T01:58:43;99399.45;;;20.03;12.08
64698;BME280;51124;53.394;-6.294;2023-08-01T02:01:10;99395.87;;;20.43;11.84
64698;BME280;51124;53.394;-6.294;2023-08-01T02:03:38;99394.23;;;20.17;11.91
64698;BME280;51124;53.394;-6.294;2023-08-01T02:06:05;99398.43;;;19.85;12.07
64698;BME280;51124;53.394;-6.294;2023-08-01T02:08:32;99399.98;;;19.64;12.07
64698;BME280;51124;53.394;-6.294;2023-08-01T02:11:00;99399.28;;;20.31;11.88
64698;BME280;51124;53.394;-6.294;2023-08-01T02:13:28;99397.61;;;20.06;11.91
64698;BME280;51124;53.394;-6.294;2023-08-01T02:15:55;99397.85;;;20.24;11.90
64698;BME280;51124;53.394;-6.294;2023-08-01T02:18:23;99400.07;;;21.17;11.87
64698;BME280;51124;53.394;-6.294;2023-08-01T02:20:50;99395.22;;;20.07;12.03
64698;BME280;51124;53.394;-6.294;2023-08-01T02:23:17;99392.16;;;19.71;11.92
64698;BME280;51124;53.394;-6.294;2023-08-01T02:25:44;99393.50;;;20.17;11.89
64698;BME280;51124;53.394;-6.294;2023-08-01T02:28:11;99388.33;;;20.55;11.87
64698;BME280;51124;53.394;-6.294;2023-08-01T02:30:39;99390.68;;;20.72;11.82
64698;BME280;51124;53.394;-6.294;2023-08-01T02:33:06;99383.56;;;19.75;12.03
64698;BME280;51124;53.394;-6.294;2023-08-01T02:35:34;99382.04;;;20.63;11.80
64698;BME280;51124;53.394;-6.294;2023-08-01T02:38:01;99388.96;;;20.88;11.84
64698;BME280;51124;53.394;-6.294;2023-08-01T02:40:29;99382.82;;;20.90;11.49
64698;BME280;51124;53.394;-6.294;2023-08-01T02:42:56;99391.26;;;20.42;11.79
64698;BME280;51124;53.394;-6.294;2023-08-01T02:45:23;99394.63;;;20.34;11.82
64698;BME280;51124;53.394;-6.294;2023-08-01T02:47:51;99396.50;;;20.00;11.98
64698;BME280;51124;53.394;-6.294;2023-08-01T02:50:18;99393.57;;;20.49;11.80
64698;BME280;51124;53.394;-6.294;2023-08-01T02:52:45;99394.55;;;20.33;11.82
64698;BME280;51124;53.394;-6.294;2023-08-01T02:55:13;99394.36;;;20.33;11.89
64698;BME280;51124;53.394;-6.294;2023-08-01T02:57:40;99394.34;;;20.78;11.86
64698;BME280;51124;53.394;-6.294;2023-08-01T03:00:08;99396.51;;;19.64;11.87
64698;BME280;51124;53.394;-6.294;2023-08-01T03:02:36;99398.85;;;19.82;11.90
64698;BME280;51124;53.394;-6.294;2023-08-01T03:05:03;99395.80;;;20.21;11.88
64698;BME280;51124;53.394;-6.294;2023-08-01T03:07:30;99395.01;;;19.84;11.75
64698;BME280;51124;53.394;-6.294;2023-08-01T03:09:57;99393.77;;;20.35;11.63
64698;BME280;51124;53.394;-6.294;2023-08-01T03:12:25;99395.34;;;21.25;12.13
64698;BME280;51124;53.394;-6.294;2023-08-01T03:14:52;99391.43;;;22.19;12.20
64698;BME280;51124;53.394;-6.294;2023-08-01T03:17:19;99392.71;;;20.80;12.46
64698;BME280;51124;53.394;-6.294;2023-08-01T03:19:47;99396.49;;;22.61;12.37
64698;BME280;51124;53.394;-6.294;2023-08-01T03:22:14;99390.24;;;23.41;13.15
64698;BME280;51124;53.394;-6.294;2023-08-01T03:24:42;99393.60;;;23.46;13.44
64698;BME280;51124;53.394;-6.294;2023-08-01T03:27:09;99395.64;;;22.32;14.02
64698;BME280;51124;53.394;-6.294;2023-08-01T03:29:37;99398.24;;;22.60;13.95
64698;BME280;51124;53.394;-6.294;2023-08-01T03:32:05;99394.83;;;22.26;14.36
64698;BME280;51124;53.394;-6.294;2023-08-01T03:34:33;99397.28;;;22.64;14.38
64698;BME280;51124;53.394;-6.294;2023-08-01T03:37:00;99398.13;;;22.43;14.52
64698;BME280;51124;53.394;-6.294;2023-08-01T03:39:27;99394.73;;;21.75;14.55
64698;BME280;51124;53.394;-6.294;2023-08-01T03:41:55;99389.14;;;22.51;14.45
64698;BME280;51124;53.394;-6.294;2023-08-01T03:44:22;99389.84;;;21.97;14.68
64698;BME280;51124;53.394;-6.294;2023-08-01T03:46:49;99387.89;;;22.03;14.50
64698;BME280;51124;53.394;-6.294;2023-08-01T03:49:17;99391.51;;;22.42;14.60
64698;BME280;51124;53.394;-6.294;2023-08-01T03:51:44;99392.13;;;22.99;14.39
64698;BME280;51124;53.394;-6.294;2023-08-01T03:54:12;99393.94;;;22.18;14.68
64698;BME280;51124;53.394;-6.294;2023-08-01T03:56:39;99393.90;;;21.43;14.85
64698;BME280;51124;53.394;-6.294;2023-08-01T03:59:07;99399.07;;;22.34;14.59
64698;BME280;51124;53.394;-6.294;2023-08-01T04:01:34;99400.16;;;22.52;14.77
64698;BME280;51124;53.394;-6.294;2023-08-01T04:04:02;99397.88;;;22.02;14.87
64698;BME280;51124;53.394;-6.294;2023-08-01T04:06:29;99394.53;;;21.94;14.66
64698;BME280;51124;53.394;-6.294;2023-08-01T04:08:56;99396.71;;;22.28;14.56
64698;BME280;51124;53.394;-6.294;2023-08-01T04:11:24;99399.66;;;20.41;14.62
64698;BME280;51124;53.394;-6.294;2023-08-01T04:13:51;99397.50;;;19.64;14.14
64698;BME280;51124;53.394;-6.294;2023-08-01T04:16:19;99402.87;;;19.94;13.66
64698;BME280;51124;53.394;-6.294;2023-08-01T04:18:46;99407.71;;;19.93;13.32
64698;BME280;51124;53.394;-6.294;2023-08-01T04:21:14;99411.85;;;19.82;13.27
64698;BME280;51124;53.394;-6.294;2023-08-01T04:23:41;99418.58;;;20.50;12.85
64698;BME280;51124;53.394;-6.294;2023-08-01T04:26:08;99420.02;;;20.07;12.67
64698;BME280;51124;53.394;-6.294;2023-08-01T04:28:36;99425.99;;;19.27;12.84
64698;BME280;51124;53.394;-6.294;2023-08-01T04:31:03;99427.51;;;19.83;12.52
64698;BME280;51124;53.394;-6.294;2023-08-01T04:33:31;99424.74;;;20.07;12.25
64698;BME280;51124;53.394;-6.294;2023-08-01T04:35:58;99429.85;;;19.95;12.41
64698;BME280;51124;53.394;-6.294;2023-08-01T04:38:25;99433.96;;;19.84;12.40
64698;BME280;51124;53.394;-6.294;2023-08-01T04:40:52;99426.54;;;20.93;11.93
64698;BME280;51124;53.394;-6.294;2023-08-01T04:43:19;99429.01;;;20.82;12.12
64698;BME280;51124;53.394;-6.294;2023-08-01T04:45:47;99428.04;;;20.23;11.89
64698;BME280;51124;53.394;-6.294;2023-08-01T04:48:14;99429.79;;;19.92;12.03
64698;BME280;51124;53.394;-6.294;2023-08-01T04:50:41;99423.95;;;20.13;11.97
64698;BME280;51124;53.394;-6.294;2023-08-01T04:53:09;99437.11;;;20.02;12.13
64698;BME280;51124;53.394;-6.294;2023-08-01T04:55:36;99436.73;;;20.37;11.94
64698;BME280;51124;53.394;-6.294;2023-08-01T04:58:03;99434.68;;;20.89;11.75
64698;BME280;51124;53.394;-6.294;2023-08-01T05:00:31;99437.39;;;20.42;12.11
64698;BME280;51124;53.394;-6.294;2023-08-01T05:02:58;99440.26;;;19.84;12.08
64698;BME280;51124;53.394;-6.294;2023-08-01T05:05:25;99443.58;;;19.82;11.87
64698;BME280;51124;53.394;-6.294;2023-08-01T05:07:53;99447.66;;;19.83;12.02
64698;BME280;51124;53.394;-6.294;2023-08-01T05:10:20;99446.23;;;20.06;11.82
64698;BME280;51124;53.394;-6.294;2023-08-01T05:12:47;99448.78;;;19.88;11.85
64698;BME280;51124;53.394;-6.294;2023-08-01T05:15:15;99448.81;;;20.06;12.05
64698;BME280;51124;53.394;-6.294;2023-08-01T05:17:42;99448.57;;;20.71;11.60
64698;BME280;51124;53.394;-6.294;2023-08-01T05:20:10;99451.39;;;19.76;11.98
64698;BME280;51124;53.394;-6.294;2023-08-01T05:22:37;99453.02;;;20.70;11.72
64698;BME280;51124;53.394;-6.294;2023-08-01T05:25:05;99459.38;;;20.80;11.82
64698;BME280;51124;53.394;-6.294;2023-08-01T05:27:32;99457.01;;;20.17;11.90
64698;BME280;51124;53.394;-6.294;2023-08-01T05:29:59;99455.99;;;19.79;12.01
64698;BME280;51124;53.394;-6.294;2023-08-01T05:32:27;99461.67;;;20.03;11.77
64698;BME280;51124;53.394;-6.294;2023-08-01T05:34:54;99461.40;;;19.82;11.85
64698;BME280;51124;53.394;-6.294;2023-08-01T05:37:21;99458.79;;;20.23;11.91
64698;BME280;51124;53.394;-6.294;2023-08-01T05:39:49;99456.00;;;20.18;11.74
64698;BME280;51124;53.394;-6.294;2023-08-01T05:42:16;99463.47;;;20.45;12.10
64698;BME280;51124;53.394;-6.294;2023-08-01T05:44:43;99463.11;;;20.86;11.62
64698;BME280;51124;53.394;-6.294;2023-08-01T05:47:10;99464.35;;;20.17;11.74
64698;BME280;51124;53.394;-6.294;2023-08-01T05:49:38;99460.92;;;20.12;11.83
64698;BME280;51124;53.394;-6.294;2023-08-01T05:52:05;99456.82;;;19.72;11.93
64698;BME280;51124;53.394;-6.294;2023-08-01T05:54:33;99453.36;;;20.51;11.84
64698;BME280;51124;53.394;-6.294;2023-08-01T05:57:00;99447.23;;;20.62;11.70
64698;BME280;51124;53.394;-6.294;2023-08-01T05:59:27;99452.16;;;20.20;11.74
64698;BME280;51124;53.394;-6.294;2023-08-01T06:01:52;99448.21;;;20.27;11.69
64698;BME280;51124;53.394;-6.294;2023-08-01T06:04:17;99446.95;;;20.01;12.00
64698;BME280;51124;53.394;-6.294;2023-08-01T06:06:43;99446.44;;;20.34;11.70
64698;BME280;51124;53.394;-6.294;2023-08-01T06:09:08;99453.27;;;19.92;11.93
64698;BME280;51124;53.394;-6.294;2023-08-01T06:11:33;99451.36;;;21.96;12.14
64698;BME280;51124;53.394;-6.294;2023-08-01T06:13:59;99451.56;;;21.76;12.55
64698;BME280;51124;53.394;-6.294;2023-08-01T06:16:24;99454.30;;;20.46;12.53
64698;BME280;51124;53.394;-6.294;2023-08-01T06:18:50;99450.38;;;23.91;12.36
64698;BME280;51124;53.394;-6.294;2023-08-01T06:21:15;99450.86;;;22.38;13.21
64698;BME280;51124;53.394;-6.294;2023-08-01T06:23:41;99451.23;;;22.70;13.65
64698;BME280;51124;53.394;-6.294;2023-08-01T06:26:06;99453.38;;;22.75;13.75
64698;BME280;51124;53.394;-6.294;2023-08-01T06:28:31;99456.96;;;22.31;13.95
64698;BME280;51124;53.394;-6.294;2023-08-01T06:30:55;99453.84;;;22.77;13.95
64698;BME280;51124;53.394;-6.294;2023-08-01T06:33:28;99461.15;;;22.71;14.03
64698;BME280;51124;53.394;-6.294;2023-08-01T06:36:02;99464.33;;;22.25;14.24
64698;BME280;51124;53.394;-6.294;2023-08-01T06:38:36;99462.02;;;22.31;14.34
64698;BME280;51124;53.394;-6.294;2023-08-01T06:41:09;99458.50;;;23.45;13.95
64698;BME280;51124;53.394;-6.294;2023-08-01T06:43:43;99460.10;;;22.09;14.47
64698;BME280;51124;53.394;-6.294;2023-08-01T06:46:16;99459.42;;;21.55;14.49
64698;BME280;51124;53.394;-6.294;2023-08-01T06:48:50;99461.91;;;23.01;14.24
64698;BME280;51124;53.394;-6.294;2023-08-01T06:51:23;99458.69;;;22.80;14.13
64698;BME280;51124;53.394;-6.294;2023-08-01T06:53:57;99456.54;;;22.10;14.32
64698;BME280;51124;53.394;-6.294;2023-08-01T06:56:31;99454.91;;;22.65;14.36
64698;BME280;51124;53.394;-6.294;2023-08-01T06:59:06;99454.80;;;22.01;14.29
64698;BME280;51124;53.394;-6.294;2023-08-01T07:01:32;99451.14;;;22.79;14.34
64698;BME280;51124;53.394;-6.294;2023-08-01T07:04:01;99455.73;;;22.19;14.50
64698;BME280;51124;53.394;-6.294;2023-08-01T07:06:25;99450.34;;;22.03;14.64
64698;BME280;51124;53.394;-6.294;2023-08-01T07:08:59;99448.46;;;21.57;14.62
64698;BME280;51124;53.394;-6.294;2023-08-01T07:11:32;99453.79;;;20.15;14.42
64698;BME280;51124;53.394;-6.294;2023-08-01T07:14:06;99460.70;;;20.96;13.48
64698;BME280;51124;53.394;-6.294;2023-08-01T07:16:39;99464.90;;;20.94;13.07
64698;BME280;51124;53.394;-6.294;2023-08-01T07:19:15;99467.55;;;21.03;12.92
64698;BME280;51124;53.394;-6.294;2023-08-01T07:21:40;99468.81;;;20.04;12.82
64698;BME280;51124;53.394;-6.294;2023-08-01T07:24:05;99459.94;;;19.93;12.62
64698;BME280;51124;53.394;-6.294;2023-08-01T07:26:31;99462.72;;;19.90;12.76
64698;BME280;51124;53.394;-6.294;2023-08-01T07:28:56;99464.53;;;20.35;12.60
64698;BME280;51124;53.394;-6.294;2023-08-01T07:31:19;99464.05;;;20.43;12.55
64698;BME280;51124;53.394;-6.294;2023-08-01T07:33:53;99471.66;;;20.17;12.71
64698;BME280;51124;53.394;-6.294;2023-08-01T07:36:26;99468.54;;;20.55;12.36
64698;BME280;51124;53.394;-6.294;2023-08-01T07:38:59;99471.14;;;20.72;12.59
64698;BME280;51124;53.394;-6.294;2023-08-01T07:41:33;99478.19;;;19.88;12.63
64698;BME280;51124;53.394;-6.294;2023-08-01T07:44:06;99486.71;;;20.10;12.38
64698;BME280;51124;53.394;-6.294;2023-08-01T07:46:39;99481.56;;;20.30;12.28
64698;BME280;51124;53.394;-6.294;2023-08-01T07:49:29;99473.29;;;20.16;12.38
64698;BME280;51124;53.394;-6.294;2023-08-01T07:51:51;99466.06;;;20.01;12.34
64698;BME280;51124;53.394;-6.294;2023-08-01T07:54:14;99460.34;;;20.75;12.27
64698;BME280;51124;53.394;-6.294;2023-08-01T07:56:47;99462.79;;;19.86;12.43
64698;BME280;51124;53.394;-6.294;2023-08-01T07:59:23;99466.42;;;20.58;12.12
64698;BME280;51124;53.394;-6.294;2023-08-01T08:01:48;99460.05;;;21.17;11.94
64698;BME280;51124;53.394;-6.294;2023-08-01T08:04:13;99460.56;;;20.59;12.08
64698;BME280;51124;53.394;-6.294;2023-08-01T08:06:39;99459.01;;;19.89;12.42
64698;BME280;51124;53.394;-6.294;2023-08-01T08:09:05;99459.19;;;20.33;12.27
64698;BME280;51124;53.394;-6.294;2023-08-01T08:11:30;99458.60;;;20.94;12.12
64698;BME280;51124;53.394;-6.294;2023-08-01T08:13:55;99461.61;;;20.46;12.29
64698;BME280;51124;53.394;-6.294;2023-08-01T08:16:18;99463.26;;;20.08;12.21
64698;BME280;51124;53.394;-6.294;2023-08-01T08:18:52;99468.87;;;20.95;12.12
64698;BME280;51124;53.394;-6.294;2023-08-01T08:21:25;99468.90;;;21.41;11.93
64698;BME280;51124;53.394;-6.294;2023-08-01T08:23:58;99469.86;;;21.10;12.06
64698;BME280;51124;53.394;-6.294;2023-08-01T08:26:32;99464.25;;;20.83;12.19
64698;BME280;51124;53.394;-6.294;2023-08-01T08:29:05;99460.55;;;21.61;11.96
64698;BME280;51124;53.394;-6.294;2023-08-01T08:31:38;99456.73;;;21.38;11.88
64698;BME280;51124;53.394;-6.294;2023-08-01T08:34:12;99455.26;;;20.52;12.05
64698;BME280;51124;53.394;-6.294;2023-08-01T08:36:45;99453.68;;;21.42;11.91
64698;BME280;51124;53.394;-6.294;2023-08-01T08:39:19;99456.76;;;21.17;12.09
64698;BME280;51124;53.394;-6.294;2023-08-01T08:41:52;99452.11;;;20.93;12.17
64698;BME280;51124;53.394;-6.294;2023-08-01T08:44:26;99448.89;;;21.71;11.89
64698;BME280;51124;53.394;-6.294;2023-08-01T08:47:02;99446.09;;;21.63;11.72
64698;BME280;51124;53.394;-6.294;2023-08-01T08:49:26;99443.15;;;21.34;11.63
64698;BME280;51124;53.394;-6.294;2023-08-01T08:52:00;99446.67;;;21.60;11.58
64698;BME280;51124;53.394;-6.294;2023-08-01T08:54:33;99449.90;;;20.83;11.84
64698;BME280;51124;53.394;-6.294;2023-08-01T08:57:08;99450.13;;;20.10;11.96
64698;BME280;51124;53.394;-6.294;2023-08-01T08:59:44;99446.10;;;20.50;11.69
64698;BME280;51124;53.394;-6.294;2023-08-01T09:02:10;99441.76;;;21.65;11.45
64698;BME280;51124;53.394;-6.294;2023-08-01T09:04:36;99442.66;;;21.00;11.57
64698;BME280;51124;53.394;-6.294;2023-08-01T09:07:05;99443.18;;;21.66;11.44
64698;BME280;51124;53.394;-6.294;2023-08-01T09:09:29;99445.33;;;23.32;11.81
64698;BME280;51124;53.394;-6.294;2023-08-01T09:12:03;99442.39;;;23.32;12.24
64698;BME280;51124;53.394;-6.294;2023-08-01T09:14:37;99433.76;;;21.58;12.81
64698;BME280;51124;53.394;-6.294;2023-08-01T09:17:10;99427.10;;;22.47;12.18
64698;BME280;51124;53.394;-6.294;2023-08-01T09:19:44;99426.66;;;24.73;12.76
64698;BME280;51124;53.394;-6.294;2023-08-01T09:22:17;99416.78;;;24.25;13.30
64698;BME280;51124;53.394;-6.294;2023-08-01T09:24:54;99421.34;;;25.00;13.31
64698;BME280;51124;53.394;-6.294;2023-08-01T09:27:17;99426.59;;;22.80;14.03
64698;BME280;51124;53.394;-6.294;2023-08-01T09:29:51;99426.14;;;24.61;13.52
64698;BME280;51124;53.394;-6.294;2023-08-01T09:32:24;99427.12;;;23.35;13.97
64698;BME280;51124;53.394;-6.294;2023-08-01T09:34:59;99428.88;;;24.63;13.87
64698;BME280;51124;53.394;-6.294;2023-08-01T09:37:41;99430.75;;;24.21;13.88
64698;BME280;51124;53.394;-6.294;2023-08-01T09:40:05;99432.07;;;24.75;13.94
64698;BME280;51124;53.394;-6.294;2023-08-01T09:42:40;99432.44;;;24.31;14.02
64698;BME280;51124;53.394;-6.294;2023-08-01T09:45:14;99430.16;;;23.72;14.05
64698;BME280;51124;53.394;-6.294;2023-08-01T09:47:48;99430.11;;;23.67;14.15
64698;BME280;51124;53.394;-6.294;2023-08-01T09:50:23;99430.11;;;23.95;14.16
64698;BME280;51124;53.394;-6.294;2023-08-01T09:53:07;99436.07;;;23.24;14.19
64698;BME280;51124;53.394;-6.294;2023-08-01T09:55:31;99428.88;;;24.46;13.91
64698;BME280;51124;53.394;-6.294;2023-08-01T09:58:06;99425.12;;;23.54;13.93
64698;BME280;51124;53.394;-6.294;2023-08-01T10:00:31;99427.26;;;24.56;13.73
64698;BME280;51124;53.394;-6.294;2023-08-01T10:03:05;99428.38;;;23.70;13.85
64698;BME280;51124;53.394;-6.294;2023-08-01T10:05:40;99427.44;;;24.55;13.39
64698;BME280;51124;53.394;-6.294;2023-08-01T10:08:14;99427.81;;;24.21;13.56
64698;BME280;51124;53.394;-6.294;2023-08-01T10:10:38;99424.31;;;21.79;13.42
64698;BME280;51124;53.394;-6.294;2023-08-01T10:13:13;99420.48;;;21.70;12.88
64698;BME280;51124;53.394;-6.294;2023-08-01T10:15:46;99428.90;;;20.63;13.01
64698;BME280;51124;53.394;-6.294;2023-08-01T10:18:20;99424.35;;;19.94;12.46
64698;BME280;51124;53.394;-6.294;2023-08-01T10:20:54;99428.00;;;22.33;11.68
64698;BME280;51124;53.394;-6.294;2023-08-01T10:23:28;99435.74;;;21.65;11.67
64698;BME280;51124;53.394;-6.294;2023-08-01T10:26:04;99435.81;;;21.74;11.65
64698;BME280;51124;53.394;-6.294;2023-08-01T10:28:32;99432.47;;;21.16;11.60
64698;BME280;51124;53.394;-6.294;2023-08-01T10:31:08;99428.71;;;21.56;11.57
64698;BME280;51124;53.394;-6.294;2023-08-01T10:33:23;99420.23;;;22.31;11.40
64698;BME280;51124;53.394;-6.294;2023-08-01T10:35:57;99418.30;;;22.04;11.47
64698;BME280;51124;53.394;-6.294;2023-08-01T10:38:23;99417.38;;;21.62;11.56
64698;BME280;51124;53.394;-6.294;2023-08-01T10:40:48;99424.51;;;22.17;11.61
64698;BME280;51124;53.394;-6.294;2023-08-01T10:43:22;99426.31;;;22.82;11.39
64698;BME280;51124;53.394;-6.294;2023-08-01T10:45:48;99429.54;;;21.75;11.28
64698;BME280;51124;53.394;-6.294;2023-08-01T10:48:13;99425.04;;;22.13;11.21
64698;BME280;51124;53.394;-6.294;2023-08-01T10:50:37;99424.24;;;21.76;11.27
64698;BME280;51124;53.394;-6.294;2023-08-01T10:53:10;99417.98;;;22.07;11.23
64698;BME280;51124;53.394;-6.294;2023-08-01T10:55:45;99416.72;;;22.16;11.03
64698;BME280;51124;53.394;-6.294;2023-08-01T10:58:09;99416.56;;;22.58;11.00
64698;BME280;51124;53.394;-6.294;2023-08-01T11:00:42;99419.25;;;22.08;11.04
64698;BME280;51124;53.394;-6.294;2023-08-01T11:03:18;99425.11;;;22.74;10.99
64698;BME280;51124;53.394;-6.294;2023-08-01T11:05:43;99429.35;;;22.63;11.03
64698;BME280;51124;53.394;-6.294;2023-08-01T11:08:06;99430.64;;;22.54;11.06
64698;BME280;51124;53.394;-6.294;2023-08-01T11:10:40;99428.52;;;22.27;11.09
64698;BME280;51124;53.394;-6.294;2023-08-01T11:13:13;99427.50;;;22.84;10.99
64698;BME280;51124;53.394;-6.294;2023-08-01T11:15:46;99420.32;;;22.26;11.11
64698;BME280;51124;53.394;-6.294;2023-08-01T11:18:20;99419.13;;;22.49;11.07
64698;BME280;51124;53.394;-6.294;2023-08-01T11:20:53;99415.84;;;22.42;10.80
64698;BME280;51124;53.394;-6.294;2023-08-01T11:23:28;99411.06;;;22.83;10.71
64698;BME280;51124;53.394;-6.294;2023-08-01T11:25:52;99424.77;;;22.15;10.60
64698;BME280;51124;53.394;-6.294;2023-08-01T11:28:25;99421.07;;;21.55;10.67
64698;BME280;51124;53.394;-6.294;2023-08-01T11:30:59;99433.45;;;20.28;10.82
64698;BME280;51124;53.394;-6.294;2023-08-01T11:33:32;99431.47;;;22.29;10.08
64698;BME280;51124;53.394;-6.294;2023-08-01T11:36:05;99419.54;;;21.30;10.35
64698;BME280;51124;53.394;-6.294;2023-08-01T11:38:39;99409.65;;;22.74;10.20
64698;BME280;51124;53.394;-6.294;2023-08-01T11:41:12;99405.29;;;23.00;9.98
64698;BME280;51124;53.394;-6.294;2023-08-01T11:43:46;99409.59;;;22.12;10.17
64698;BME280;51124;53.394;-6.294;2023-08-01T11:46:19;99402.85;;;22.68;10.26
64698;BME280;51124;53.394;-6.294;2023-08-01T11:48:55;99404.23;;;22.07;10.44
64698;BME280;51124;53.394;-6.294;2023-08-01T11:51:20;99406.85;;;21.59;10.44
64698;BME280;51124;53.394;-6.294;2023-08-01T11:53:45;99402.87;;;22.34;10.40
64698;BME280;51124;53.394;-6.294;2023-08-01T11:56:20;99402.22;;;22.44;10.42
64698;BME280;51124;53.394;-6.294;2023-08-01T11:58:46;99404.79;;;20.37;10.97
64698;BME280;51124;53.394;-6.294;2023-08-01T12:01:12;99399.65;;;22.91;10.22
64698;BME280;51124;53.394;-6.294;2023-08-01T12:03:49;99393.25;;;22.67;10.37
64698;BME280;51124;53.394;-6.294;2023-08-01T12:06:07;99384.37;;;22.64;9.98
64698;BME280;51124;53.394;-6.294;2023-08-01T12:08:34;99379.83;;;23.69;10.00
64698;BME280;51124;53.394;-6.294;2023-08-01T12:11:02;99374.66;;;25.01;10.38
64698;BME280;51124;53.394;-6.294;2023-08-01T12:13:27;99369.49;;;24.84;10.94
64698;BME280;51124;53.394;-6.294;2023-08-01T12:15:51;99361.72;;;22.54;11.23
64698;BME280;51124;53.394;-6.294;2023-08-01T12:18:27;99357.65;;;23.12;11.32
64698;BME280;51124;53.394;-6.294;2023-08-01T12:20:51;99358.68;;;25.64;11.78
64698;BME280;51124;53.394;-6.294;2023-08-01T12:23:24;99360.72;;;25.42;12.03
64698;BME280;51124;53.394;-6.294;2023-08-01T12:25:58;99359.18;;;24.42;12.51
64698;BME280;51124;53.394;-6.294;2023-08-01T12:28:32;99363.94;;;24.56;12.84
64698;BME280;51124;53.394;-6.294;2023-08-01T12:31:05;99362.49;;;24.15;12.92
64698;BME280;51124;53.394;-6.294;2023-08-01T12:33:39;99358.73;;;24.17;12.92
64698;BME280;51124;53.394;-6.294;2023-08-01T12:36:13;99357.77;;;24.25;12.96
64698;BME280;51124;53.394;-6.294;2023-08-01T12:38:46;99351.26;;;24.93;12.68
64698;BME280;51124;53.394;-6.294;2023-08-01T12:41:20;99350.09;;;25.16;13.02
64698;BME280;51124;53.394;-6.294;2023-08-01T12:43:53;99342.70;;;24.41;13.07
64698;BME280;51124;53.394;-6.294;2023-08-01T12:46:27;99338.07;;;24.16;13.19
64698;BME280;51124;53.394;-6.294;2023-08-01T12:49:01;99330.81;;;25.81;12.97
64698;BME280;51124;53.394;-6.294;2023-08-01T12:51:34;99325.25;;;25.21;12.72
64698;BME280;51124;53.394;-6.294;2023-08-01T12:54:07;99317.00;;;25.59;12.86
64698;BME280;51124;53.394;-6.294;2023-08-01T12:56:41;99312.69;;;25.09;12.87
64698;BME280;51124;53.394;-6.294;2023-08-01T12:59:16;99314.98;;;25.37;12.73